Have a Safe July 4th! 

Flight Track Log - Related Links

Times and Time Zones

All times are in EDT time to prevent confusion due to time zone crossing. See the DAL268 flight status page for this flight to view local times or setup timezone preferences in your user account.

Time Position Orientation Groundspeed Altitude Reporting Facility
EDT Latitude Longitude Course Direction KTS MPH feet Rate Location/Type
Tue 06:47:17 PM 33.6333 -84.3833 90° East 175 201 2,200  Level Atlanta TRACON
Tue 06:48:17 PM 33.6333 -84.3167 90° East 248 285 4,000 2,286 Climbing Atlanta TRACON
Tue 06:49:23 PM 33.6333 -84.2167 90° East 274 315 7,000 2,810 Climbing Atlanta TRACON
Tue 06:50:23 PM 33.6333 -84.1167 90° East 286 329 9,900 2,063 Climbing Atlanta TRACON
Tue 06:51:31 PM 33.6378 -84.0064 87° East 298 343 11,400 1,219 Climbing Atlanta Center
Tue 06:52:31 PM 33.6458 -83.8842 85° East 338 389 12,500 1,600 Climbing Atlanta Center
Tue 06:53:31 PM 33.6519 -83.7444 87° East 393 452 14,600 2,350 Climbing Atlanta Center
Tue 06:54:31 PM 33.6725 -83.6044 80° East 418 481 17,200 2,150 Climbing Atlanta Center
Tue 06:55:31 PM 33.7261 -83.4769 63° Northeast 422 486 18,900 1,700 Climbing Atlanta Center
Tue 06:56:31 PM 33.7778 -83.3464 65° Northeast 434 499 20,600 1,050 Climbing Atlanta Center
Tue 06:57:31 PM 33.8353 -83.2086 63° Northeast 450 518 21,000 750 Climbing Atlanta Center
Tue 06:58:31 PM 33.8844 -83.0881 64° Northeast 450 518 22,100 1,400 Climbing Atlanta Center
Tue 06:59:31 PM 33.9397 -82.9444 65° Northeast 455 524 23,800 1,850 Climbing Atlanta Center
Tue 07:00:31 PM 33.9967 -82.8061 64° Northeast 455 524 25,800 1,600 Climbing Atlanta Center
Tue 07:01:31 PM 34.0536 -82.6672 64° Northeast 455 524 27,000 600 Climbing Atlanta Center
Tue 07:02:31 PM 34.1044 -82.5311 66° East 444 511 27,000  Level Atlanta Center
Tue 07:03:31 PM 34.1589 -82.3944 64° Northeast 444 511 27,000  Level Atlanta Center
Tue 07:04:31 PM 34.2133 -82.2553 65° Northeast 444 511 27,000  Level Atlanta Center
Tue 07:05:31 PM 34.2675 -82.1183 64° Northeast 444 511 27,000  Level Atlanta Center
Tue 07:06:31 PM 34.3344 -81.9886 58° Northeast 449 517 27,000  Level Atlanta Center
Tue 07:07:31 PM 34.4008 -81.8561 59° Northeast 449 517 27,000  Level Atlanta Center
Tue 07:08:31 PM 34.4653 -81.7258 59° Northeast 449 517 27,000  Level Atlanta Center
Tue 07:09:31 PM 34.5297 -81.5956 59° Northeast 449 517 27,000  Level Atlanta Center
Tue 07:10:31 PM 34.5978 -81.4622 58° Northeast 455 524 27,000  Level Atlanta Center
Tue 07:11:31 PM 34.6619 -81.3342 59° Northeast 450 518 27,000  Level Atlanta Center
Tue 07:12:31 PM 34.7258 -81.2031 59° Northeast 444 511 27,000  Level Atlanta Center
Tue 07:13:31 PM 34.7894 -81.0694 60° Northeast 453 521 27,000  Level Atlanta Center
Tue 07:14:31 PM 34.8528 -80.9408 59° Northeast 447 514 27,000  Level Atlanta Center
Tue 07:15:31 PM 34.9161 -80.8067 60° Northeast 452 520 27,000  Level Atlanta Center
Tue 07:16:31 PM 34.9817 -80.6747 59° Northeast 452 520 27,000  Level Atlanta Center
Tue 07:18:49 PM 35.1347 -80.3567 59° Northeast 450 518 27,000  Level Washington Center
Tue 07:19:49 PM 35.1942 -80.2253 61° Northeast 455 524 27,000  Level Washington Center
Tue 07:20:50 PM 35.2575 -80.0942 59° Northeast 464 534 27,000  Level Washington Center
Tue 07:21:51 PM 35.3206 -79.9678 59° Northeast 450 518 27,000  Level Washington Center
Tue 07:22:51 PM 35.3839 -79.8339 60° Northeast 450 518 27,000  Level Washington Center
Tue 07:23:52 PM 35.4492 -79.6994 59° Northeast 450 518 27,000  Level Washington Center
Tue 07:24:49 PM 35.5100 -79.5700 60° Northeast 450 518 27,000  Level Washington Center
Tue 07:25:50 PM 35.5728 -79.4353 60° Northeast 450 518 27,000  Level Washington Center
Tue 07:26:51 PM 35.6353 -79.3028 60° Northeast 450 518 27,000  Level Washington Center
Tue 07:27:49 PM 35.6958 -79.1700 61° Northeast 450 518 27,000  Level Washington Center
Tue 07:28:50 PM 35.7600 -79.0372 59° Northeast 450 518 27,000  Level Washington Center
Tue 07:29:49 PM 35.8203 -78.9067 60° Northeast 450 518 27,000  Level Washington Center
Tue 07:30:49 PM 35.8761 -78.7656 64° Northeast 450 518 27,000  Level Washington Center
Tue 07:31:51 PM 35.8928 -78.6125 82° East 445 512 27,000  Level Washington Center
Tue 07:32:49 PM 35.9089 -78.4564 83° East 445 512 27,000  Level Washington Center
Tue 07:33:49 PM 35.9389 -78.3422 72° East 445 512 27,000  Level Washington Center
Tue 07:34:50 PM 36.0400 -78.2069 47° Northeast 421 484 27,000  Level Washington Center
Tue 07:35:51 PM 36.1236 -78.0942 47° Northeast 432 497 27,000  Level Washington Center
Tue 07:36:49 PM 36.1703 -77.9539 68° East 437 503 27,000  Level Washington Center
Tue 07:37:50 PM 36.1858 -77.8000 83° East 437 503 27,000 98 Level Washington Center
Tue 07:38:51 PM 36.2442 -77.6833 58° Northeast 437 503 27,200 843 Climbing Washington Center
Tue 07:39:51 PM 36.3336 -77.5772 44° Northeast 428 493 28,700 1,388 Climbing Washington Center
Tue 07:40:52 PM 36.4317 -77.4583 44° Northeast 439 505 30,000 1,271 Climbing Washington Center
Tue 07:41:49 PM 36.5208 -77.3519 44° Northeast 439 505 31,200 1,231 Climbing Washington Center
Tue 07:42:49 PM 36.6100 -77.2403 45° Northeast 439 505 32,400 893 Climbing Washington Center
Tue 07:43:50 PM 36.6989 -77.1358 43° Northeast 439 505 33,000 295 Climbing Washington Center
Tue 07:44:51 PM 36.7900 -77.0236 45° Northeast 439 505 33,000  Level Washington Center
Tue 07:45:49 PM 36.8789 -76.9136 45° Northeast 439 505 33,000  Level Washington Center
Tue 07:46:50 PM 36.9697 -76.8058 43° Northeast 439 505 33,000  Level Washington Center
Tue 07:47:50 PM 37.0522 -76.7031 45° Northeast 439 505 33,000  Level Washington Center
Tue 07:48:51 PM 37.1428 -76.5897 45° Northeast 445 512 33,000  Level Washington Center
Tue 07:49:51 PM 37.2356 -76.4789 44° Northeast 450 518 33,000  Level Washington Center
Tue 07:50:49 PM 37.3261 -76.3675 44° Northeast 455 524 33,000  Level Washington Center
Tue 07:51:50 PM 37.4164 -76.2561 44° Northeast 460 529 33,000  Level Washington Center
Tue 07:52:51 PM 37.5211 -76.1364 42° Northeast 454 522 33,000  Level Washington Center
Tue 07:53:49 PM 37.6114 -76.0269 44° Northeast 454 522 33,000  Level Washington Center
Tue 07:54:49 PM 37.7033 -75.9200 43° Northeast 449 517 33,000  Level Washington Center
Tue 07:55:49 PM 37.7956 -75.8361 36° Northeast 449 517 33,000  Level Washington Center
Tue 07:56:50 PM 37.9164 -75.7522 29° Northeast 449 517 33,000  Level Washington Center
Tue 07:57:50 PM 38.0189 -75.6708 32° Northeast 439 505 33,000  Level Washington Center
Tue 07:58:51 PM 38.1189 -75.5811 35° Northeast 439 505 33,000  Level Washington Center
Tue 07:59:49 PM 38.2231 -75.4992 32° Northeast 439 505 33,000  Level Washington Center
Tue 08:00:49 PM 38.3336 -75.4169 30° Northeast 439 505 33,000  Level Washington Center
Tue 08:01:51 PM 38.4375 -75.3292 33° Northeast 444 511 33,000 -49 Level Washington Center
Tue 08:02:51 PM 38.5417 -75.2467 32° Northeast 439 505 32,900  Descending Washington Center
Tue 08:03:49 PM 38.6456 -75.1689 30° Northeast 439 505 33,000 50 Climbing Washington Center
Tue 08:04:50 PM 38.7517 -75.0833 32° Northeast 439 505 33,000  Level Washington Center
Tue 08:05:50 PM 38.8556 -74.9972 33° Northeast 439 505 33,000 -252 Level Washington Center
Tue 08:06:49 PM 38.9592 -74.9161 31° Northeast 439 505 32,500 -1,008 Descending Washington Center
Tue 08:07:49 PM 39.0608 -74.8325 33° Northeast 439 505 31,000 -1,650 Descending Washington Center
Tue 08:08:49 PM 39.1625 -74.7350 37° Northeast 439 505 29,200 -2,331 Descending Washington Center
Tue 08:09:50 PM 39.2553 -74.6319 41° Northeast 444 511 26,300 -2,842 Descending Washington Center
Tue 08:10:05 PM 39.2692 -74.6164 41° Northeast 433 498 25,600 -2,605 Descending New York Center
Tue 08:11:06 PM 39.3642 -74.5142 40° Northeast 428 493 23,000 -2,521 Descending New York Center
Tue 08:12:04 PM 39.4547 -74.4167 40° Northeast 422 486 20,600 -2,492 Descending New York Center
Tue 08:13:04 PM 39.5497 -74.3114 40° Northeast 422 486 18,100 -1,587 Descending New York Center
Tue 08:14:05 PM 39.6339 -74.2186 40° Northeast 407 468 17,400 -1,240 Descending New York Center
Tue 08:15:05 PM 39.7156 -74.1281 40° Northeast 389 448 15,600 -2,000 Descending New York Center
Tue 08:16:05 PM 39.7886 -74.0506 39° Northeast 380 437 13,400 -2,132 Descending New York Center
Tue 08:17:06 PM 39.8681 -73.9703 38° Northeast 367 422 11,300 -1,210 Descending New York Center
Tue 08:18:04 PM 39.9531 -73.9067 30° Northeast 340 391 11,000 -151 Descending New York Center
Tue 08:19:05 PM 40.0072 -73.8306 47° Northeast 295 339 11,000  Level New York Center
Tue 08:20:05 PM 40.0614 -73.7542 47° Northeast 278 320 11,000 -850 Level New York Center
Tue 08:21:05 PM 40.1283 -73.7408 North 243 280 9,300 -1,730 Descending New York Center
Tue 08:21:56 PM 40.1833 -73.7833 329° Northwest 281 323 7,800 -1,730 Descending New York TRACON
Tue 08:22:56 PM 40.2500 -73.8333 330° Northwest 281 323 6,100 -1,632 Descending New York TRACON
Tue 08:23:50 PM 40.3167 -73.8833 330° Northwest 275 316 4,700 -1,526 Descending New York TRACON
Tue 08:24:50 PM 40.3667 -73.9500 315° West 264 304 3,200 -762 Descending New York TRACON
Tue 08:25:56 PM 40.4333 -73.9833 339° North 262 302 3,100 -48 Descending New York TRACON
Tue 08:26:56 PM 40.5000 -73.9833 360° North 190 219 3,100 -200 Level New York TRACON
Tue 08:27:56 PM 40.5500 -73.9500 27° Northeast 180 207 2,700 -650 Descending New York TRACON
Tue 08:28:56 PM 40.5833 -73.9167 37° Northeast 181 208 1,800 -900 Descending New York TRACON

Login

Don't have an account? Register now (free) for customized features, flight alerts, and more!